Hauptseite
METAR-TAF:

METAR-TAF

Flughäfen :

Fliegerhorst Diepholz

Diepholz, Deutschland

Breite: 52-35N, Länge: 008-21E, Höhe: 39 m

Beobachtung

Neuester Wetterbericht von vor 1 Stunde und 59 Minuten, um 14:20 UTC
Wind 7 kt aus Süd/Südwest
Temperatur 13°C
Luftfeuchtigkeit 67%
Luftdruck 1027 hPa
Sichtweite 10 km oder mehr
Leicht bewölkt in der Höhe von 2500 ft
Durchbrochene Bewölkung in der Höhe von 30000 ft

METAR: ETND 141420Z 21007KT 9999 FEW025 BKN300 13/07 Q1027 BLU+

Zeit: 17:19 (16:19 UTC)

Prognose

Neuester Wetterbericht von vor 1 Stunde und 22 Minuten, um 14:57 UTC
Gültige Prognose vom 14 um 12 UTC bis 14 um 21 UTC
Wind 5 kt aus Süd
Sichtweite 10 km oder mehr
Durchbrochene Bewölkung in der Höhe von 30000 ft

TAF: ETND 141457Z 1412/1421 17005KT 9999 NSW BKN300 CANCEL 1500Z BY ETGL

Wetterbeobachtungen und Prognosen von mehr als 4000 Flughäfen (METAR und TAF Bericht).

Die verfügbaren Stationen werden durch gelbe und rote Markierungen auf der Karte dargestellt.

Führen Sie die Maus auf sie, um den Namen der Station zu sehen.

Darauf klicken, um die Beobachtung von Wetterbeobachtungen und Prognosen zu sehen.

Um die Karte zu ändern : klicken Sie auf den grünen Tasten mit einem schwarzen Kreuz Zum Vergrößern, auf den grünen Button mit einem Gedankenstrich zu verkleinern, oder auf die grünen Pfeile für benachbarte Karten.


METAR-TAF: